Time;durP1;ratioP1;P1;durP2;ratioP2;P2;SDS_P1;SDS_P2;PMS_P1;PMS_P2;Temp;Humidity;BMP_temperature;BMP_pressure;BME280_temperature;BME280_humidity;BME280_pressure;Samples;Min_cycle;Max_cycle;Signal;HPM_P1;HPM_P2
2022/11/29 00:01:31;;;;;;;36.80;20.40;;;;;;;1.26;88.62;99632.58;1659005;85;21047;-44
2022/11/29 00:03:58;;;;;;;37.25;20.27;;;;;;;1.34;88.42;99633.77;1659259;86;21015;-46
2022/11/29 00:06:28;;;;;;;39.45;21.12;;;;;;;1.36;88.48;99630.72;1659099;86;21023;-53
2022/11/29 00:08:57;;;;;;;39.05;20.77;;;;;;;1.37;88.54;99627.71;1659050;86;21067;-47
2022/11/29 00:14:15;;;;;;;39.03;20.72;;;;;;;1.42;88.16;99628.07;1659034;86;21003;-59
2022/11/29 00:16:41;;;;;;;36.85;20.02;;;;;;;1.42;88.27;99625.89;1659036;85;20996;-48
2022/11/29 00:19:09;;;;;;;39.27;20.32;;;;;;;1.44;88.19;99623.72;1659000;86;21048;-37
2022/11/29 00:21:35;;;;;;;35.88;19.62;;;;;;;1.44;88.29;99624.17;1659060;85;21063;-46
2022/11/29 00:24:01;;;;;;;38.95;19.75;;;;;;;1.34;88.12;99628.14;1658994;86;21027;-51
2022/11/29 00:26:27;;;;;;;39.13;19.95;;;;;;;1.43;88.13;99621.99;1659042;86;21016;-43
2022/11/29 00:28:53;;;;;;;39.58;20.35;;;;;;;1.45;87.87;99624.56;1658936;85;21108;-51
2022/11/29 00:31:25;;;;;;;36.58;20.35;;;;;;;1.39;88.33;99625.95;1659144;85;20999;-46
2022/11/29 00:33:52;;;;;;;39.53;19.90;;;;;;;1.38;88.19;99618.59;1659270;86;21016;-49
2022/11/29 00:36:19;;;;;;;41.75;21.52;;;;;;;1.32;88.44;99620.83;1659144;85;21004;-40
2022/11/29 00:38:45;;;;;;;36.83;19.95;;;;;;;1.37;88.23;99622.08;1659362;86;21477;-47
2022/11/29 00:41:11;;;;;;;37.75;18.98;;;;;;;1.35;88.32;99608.30;1659132;86;21063;-48
2022/11/29 00:43:37;;;;;;;38.58;20.02;;;;;;;1.29;88.50;99618.72;1659148;85;21501;-49
2022/11/29 00:46:04;;;;;;;40.03;20.37;;;;;;;1.34;88.59;99613.05;1659211;85;21044;-46
2022/11/29 00:48:30;;;;;;;37.20;19.85;;;;;;;1.38;88.53;99617.75;1678883;84;21028;-46
2022/11/29 00:50:56;;;;;;;36.58;19.80;;;;;;;1.41;88.23;99623.75;1687535;84;20989;-47
2022/11/29 00:53:22;;;;;;;30.15;17.48;;;;;;;1.39;87.86;99615.59;1687451;84;21014;-44
2022/11/29 00:55:50;;;;;;;38.92;20.72;;;;;;;1.36;88.19;99614.33;1687502;84;21004;-58
2022/11/29 00:58:16;;;;;;;40.35;20.65;;;;;;;1.35;88.29;99609.59;1687652;84;21517;-42
2022/11/29 01:00:42;;;;;;;39.35;19.85;;;;;;;1.33;88.28;99607.45;1687576;85;21011;-45
2022/11/29 01:03:08;;;;;;;37.95;19.98;;;;;;;1.34;88.16;99610.45;1687635;84;21519;-50
2022/11/29 01:05:33;;;;;;;37.73;19.82;;;;;;;1.34;88.26;99606.56;1687498;85;21023;-57
2022/11/29 01:07:59;;;;;;;38.83;20.62;;;;;;;1.34;88.03;99614.34;1687525;84;21010;-54
2022/11/29 01:10:26;;;;;;;36.23;19.25;;;;;;;1.35;88.41;99605.70;1687499;84;21022;-48
2022/11/29 01:12:51;;;;;;;37.38;19.57;;;;;;;1.43;88.14;99610.33;1687758;84;21015;-46
2022/11/29 01:15:17;;;;;;;36.75;20.70;;;;;;;1.28;88.37;99608.80;1687510;85;21019;-53
2022/11/29 01:17:45;;;;;;;33.13;19.80;;;;;;;1.29;88.32;99601.88;1687731;84;21015;-54
2022/11/29 01:20:12;;;;;;;38.70;19.95;;;;;;;1.24;88.45;99598.06;1687463;84;21465;-54
2022/11/29 01:22:39;;;;;;;38.92;20.62;;;;;;;1.18;88.94;99593.38;1687550;84;21492;-44
2022/11/29 01:25:06;;;;;;;36.93;19.65;;;;;;;1.23;88.76;99601.52;1687760;85;21050;-44
2022/11/29 01:27:33;;;;;;;;;;;;;;;1.27;88.75;99593.27;1689975;84;21022;-51
2022/11/29 01:29:59;;;;;;;37.78;20.60;;;;;;;1.27;88.76;99591.97;1687769;85;20107;-48
2022/11/29 01:32:25;;;;;;;36.35;20.20;;;;;;;1.22;88.87;99591.17;1687500;85;21018;-51
2022/11/29 01:34:51;;;;;;;35.60;19.40;;;;;;;1.21;88.88;99594.20;1687497;84;21050;-50
2022/11/29 01:37:17;;;;;;;37.63;20.57;;;;;;;1.18;88.92;99592.09;1687450;85;21011;-47
2022/11/29 01:39:42;;;;;;;40.95;21.02;;;;;;;1.28;88.72;99588.07;1687490;85;21055;-46
2022/11/29 01:42:11;;;;;;;34.78;19.42;;;;;;;1.32;88.69;99590.19;1687503;84;21014;-49
2022/11/29 01:44:45;;;;;;;38.00;20.90;;;;;;;1.33;88.52;99597.09;1687458;84;21063;-50
2022/11/29 01:47:11;;;;;;;36.28;19.82;;;;;;;1.33;88.54;99591.91;1686252;85;20984;-58
2022/11/29 01:49:44;;;;;;;38.80;20.20;;;;;;;1.34;88.44;99591.02;1659337;85;21063;-51
2022/11/29 01:52:19;;;;;;;41.45;20.45;;;;;;;1.31;88.28;99587.16;1659170;86;21532;-50
2022/11/29 01:54:49;;;;;;;38.98;20.00;;;;;;;1.33;88.09;99591.91;1657745;86;21004;-59
2022/11/29 01:57:16;;;;;;;40.88;20.40;;;;;;;1.27;88.21;99589.37;1658827;86;21043;-41
2022/11/29 01:59:46;;;;;;;37.13;18.92;;;;;;;1.23;88.40;99591.59;1659352;85;21648;-54
2022/11/29 02:02:23;;;;;;;38.50;19.98;;;;;;;1.18;88.50;99590.80;1659014;86;21027;-50
2022/11/29 02:04:49;;;;;;;39.60;20.88;;;;;;;1.23;88.55;99595.03;1659199;86;21477;-58
2022/11/29 02:07:16;;;;;;;39.48;19.92;;;;;;;1.28;88.50;99591.95;1659298;85;21015;-47
2022/11/29 02:09:41;;;;;;;41.05;20.72;;;;;;;1.23;88.67;99590.30;1659184;85;21028;-51
2022/11/29 02:12:27;;;;;;;41.77;19.77;;;;;;;1.26;88.70;99592.86;1659063;86;21133;-47
2022/11/29 02:15:32;;;;;;;40.48;20.23;;;;;;;1.30;88.48;99593.23;1659024;85;21772;-46
2022/11/29 02:18:06;;;;;;;41.65;21.23;;;;;;;1.36;88.45;99587.97;1636392;86;20979;-49
2022/11/29 02:21:20;;;;;;;38.13;20.08;;;;;;;1.36;88.22;99586.67;1659134;85;21055;-44
2022/11/29 02:24:06;;;;;;;38.65;20.72;;;;;;;1.27;88.10;99586.79;1659085;85;21172;-51
2022/11/29 02:27:19;;;;;;;42.05;20.70;;;;;;;1.29;88.05;99591.51;1659084;86;21036;-47
2022/11/29 02:30:14;;;;;;;36.85;18.40;;;;;;;1.32;88.19;99595.37;1659173;85;21023;-44
2022/11/29 02:33:30;;;;;;;39.50;21.60;;;;;;;1.28;88.19;99592.41;1638922;86;20988;-47
2022/11/29 02:36:04;;;;;;;40.67;20.23;;;;;;;1.34;88.20;99585.84;1658668;85;21091;-51
2022/11/29 02:38:44;;;;;;;39.15;20.85;;;;;;;1.31;88.02;99593.64;1657585;86;21092;-51
2022/11/29 02:41:27;;;;;;;34.85;19.45;;;;;;;1.27;88.12;99598.45;1675515;81;21210;-41
2022/11/29 02:44:22;;;;;;;35.15;18.57;;;;;;;1.23;88.31;99598.08;1693527;84;21022;-41
2022/11/29 02:46:57;;;;;;;35.88;20.02;;;;;;;1.13;88.45;99607.26;1693801;85;21382;-54
2022/11/29 02:49:48;;;;;;;41.10;20.45;;;;;;;1.20;88.78;99610.64;1692647;84;21074;-39
2022/11/29 02:52:32;;;;;;;35.90;20.23;;;;;;;1.18;88.60;99610.22;1693440;84;20975;-45
2022/11/29 02:55:12;;;;;;;40.85;20.92;;;;;;;1.18;88.43;99618.84;1692914;84;21051;-57
2022/11/29 02:58:01;;;;;;;40.58;21.90;;;;;;;1.24;88.62;99612.76;1685278;85;21019;-55
2022/11/29 03:00:27;;;;;;;37.75;19.55;;;;;;;1.26;88.57;99613.59;1681195;85;21019;-48
2022/11/29 03:03:16;;;;;;;43.00;21.23;;;;;;;1.21;88.75;99612.34;1681383;85;21031;-48
2022/11/29 03:06:00;;;;;;;36.48;19.62;;;;;;;1.33;88.42;99603.57;1679496;85;20976;-53
2022/11/29 03:08:49;;;;;;;41.28;22.07;;;;;;;1.37;88.15;99610.42;1680897;85;21043;-51
2022/11/29 03:11:30;;;;;;;41.63;22.85;;;;;;;1.36;88.10;99611.73;1680753;85;21148;-47
2022/11/29 03:14:25;;;;;;;39.65;21.12;;;;;;;1.31;87.96;99606.17;1681092;85;21007;-48
2022/11/29 03:17:05;;;;;;;39.48;20.10;;;;;;;1.32;87.82;99613.06;1681291;85;21552;-52
2022/11/29 03:20:08;;;;;;;39.33;21.00;;;;;;;1.36;87.98;99620.80;1681211;85;21019;-43
2022/11/29 03:23:25;;;;;;;39.83;21.02;;;;;;;1.41;87.79;99613.38;1681295;85;21011;-53
2022/11/29 03:25:56;;;;;;;42.40;21.12;;;;;;;1.41;87.96;99615.98;1681404;85;21015;-49
2022/11/29 03:28:36;;;;;;;58.42;28.05;;;;;;;1.33;88.03;99622.56;1681296;85;21059;-40
2022/11/29 03:31:31;;;;;;;39.35;20.88;;;;;;;1.38;87.84;99620.34;1681290;85;21059;-52
2022/11/29 03:34:22;;;;;;;36.17;20.25;;;;;;;1.37;87.67;99614.31;1681297;85;21581;-51
2022/11/29 03:36:59;;;;;;;38.88;20.30;;;;;;;1.28;87.75;99619.61;1680120;85;21047;-55
2022/11/29 03:39:42;;;;;;;41.33;21.60;;;;;;;1.30;87.93;99616.56;1680917;85;21008;-50
2022/11/29 03:42:30;;;;;;;45.85;22.87;;;;;;;1.32;88.05;99614.35;1688452;84;21067;-47
2022/11/29 03:45:04;;;;;;;37.05;20.60;;;;;;;1.37;88.01;99619.94;1701176;84;21038;-43
2022/11/29 03:47:41;;;;;;;35.85;19.73;;;;;;;1.37;87.92;99618.64;1701155;83;21026;-40
2022/11/29 03:50:21;;;;;;;37.25;21.02;;;;;;;1.39;87.93;99619.48;1701511;84;21591;-47
2022/11/29 03:52:58;;;;;;;44.90;20.55;;;;;;;1.43;87.64;99619.40;1700617;84;20987;-54
2022/11/29 03:55:32;;;;;;;44.42;21.17;;;;;;;1.41;87.55;99627.64;1701157;84;20994;-41
2022/11/29 03:58:20;;;;;;;42.90;21.65;;;;;;;1.37;87.67;99624.67;1701431;84;21491;-52
2022/11/29 04:00:55;;;;;;;53.42;25.90;;;;;;;1.44;87.86;99626.31;1701558;84;21049;-52
2022/11/29 04:04:07;;;;;;;41.88;22.93;;;;;;;1.42;87.86;99635.84;1697832;84;21526;-49
2022/11/29 04:06:47;;;;;;;60.28;28.07;;;;;;;1.44;87.59;99637.13;1666314;84;21017;-46
2022/11/29 04:09:30;;;;;;;50.80;26.12;;;;;;;1.46;87.54;99641.40;1700522;84;21017;-46
2022/11/29 04:12:24;;;;;;;45.10;22.10;;;;;;;1.51;87.77;99642.20;1701117;84;21034;-49
2022/11/29 04:15:27;;;;;;;36.48;19.12;;;;;;;1.47;87.60;99639.66;1701501;84;21618;-39
2022/11/29 04:18:10;;;;;;;44.77;21.25;;;;;;;1.44;87.44;99644.45;1701502;84;20995;-48
2022/11/29 04:21:27;;;;;;;42.00;20.82;;;;;;;1.39;87.53;99650.13;1701606;84;21026;-47
2022/11/29 04:24:22;;;;;;;41.13;20.00;;;;;;;1.43;87.50;99649.20;1701617;84;21405;-51
2022/11/29 04:27:36;;;;;;;35.75;19.20;;;;;;;1.44;87.59;99654.82;1701458;84;20994;-56
2022/11/29 04:30:19;;;;;;;34.60;19.30;;;;;;;1.43;87.63;99652.24;1701518;84;21495;-42
2022/11/29 04:33:40;;;;;;;41.15;21.65;;;;;;;1.37;87.70;99655.77;1701481;84;21069;-50
2022/11/29 04:36:27;;;;;;;42.53;21.52;;;;;;;1.38;87.71;99659.21;1701473;84;21468;-45
2022/11/29 04:39:16;;;;;;;40.95;20.90;;;;;;;1.40;87.92;99657.45;1701778;84;21030;-54
2022/11/29 04:42:17;;;;;;;44.58;20.90;;;;;;;1.40;87.74;99660.05;1699519;84;21013;-45
2022/11/29 04:45:09;;;;;;;42.10;21.20;;;;;;;1.43;87.76;99663.45;1681397;85;20996;-53
2022/11/29 04:48:01;;;;;;;43.33;22.35;;;;;;;1.46;87.52;99664.73;1681183;85;21381;-48
2022/11/29 04:50:56;;;;;;;44.85;22.10;;;;;;;1.49;87.58;99663.81;1679876;85;21456;-46
2022/11/29 04:53:30;;;;;;;41.60;21.23;;;;;;;1.45;87.36;99670.77;1681137;85;20985;-42
2022/11/29 04:56:22;;;;;;;38.17;20.55;;;;;;;1.47;87.62;99674.20;1681399;85;21018;-42
2022/11/29 04:59:13;;;;;;;43.13;22.05;;;;;;;1.40;87.41;99668.70;1681164;85;21023;-41
2022/11/29 05:02:08;;;;;;;42.05;21.15;;;;;;;1.42;87.72;99670.83;1681358;85;21055;-45
2022/11/29 05:04:54;;;;;;;40.12;20.80;;;;;;;1.43;87.81;99677.71;1681280;85;21537;-44
2022/11/29 05:07:51;;;;;;;43.63;22.27;;;;;;;1.51;87.56;99681.50;1681200;85;21477;-44
2022/11/29 05:10:58;;;;;;;53.83;23.80;;;;;;;1.51;87.56;99675.91;1681100;85;21019;-45
2022/11/29 05:13:59;;;;;;;42.50;21.37;;;;;;;1.44;87.60;99682.03;1681472;85;21580;-43
2022/11/29 05:16:37;;;;;;;42.73;20.37;;;;;;;1.42;87.86;99684.20;1681294;85;21022;-44
2022/11/29 05:19:17;;;;;;;44.08;21.77;;;;;;;1.38;87.50;99691.16;1681468;85;21019;-50
2022/11/29 05:22:00;;;;;;;42.95;22.45;;;;;;;1.40;87.55;99682.95;1681238;85;21020;-47
2022/11/29 05:24:54;;;;;;;42.43;21.60;;;;;;;1.44;87.47;99683.33;1681393;85;21515;-44
2022/11/29 05:27:34;;;;;;;45.43;22.40;;;;;;;1.39;87.52;99694.63;1681209;85;21470;-47
2022/11/29 05:30:11;;;;;;;45.92;21.57;;;;;;;1.34;87.67;99692.08;1680951;85;21003;-43
2022/11/29 05:33:13;;;;;;;38.90;21.93;;;;;;;1.37;87.70;99695.94;1681463;85;21171;-37
2022/11/29 05:35:54;;;;;;;45.67;22.77;;;;;;;1.39;87.67;99704.55;1681351;85;20999;-55
2022/11/29 05:38:42;;;;;;;37.78;20.50;;;;;;;1.41;87.62;99700.65;1660109;85;21034;-47
2022/11/29 05:41:37;;;;;;;36.23;20.70;;;;;;;1.34;87.32;99703.73;1681068;85;21019;-44
2022/11/29 05:44:41;;;;;;;39.92;21.27;;;;;;;1.36;87.49;99706.31;1674792;85;21039;-46
2022/11/29 05:47:09;;;;;;;47.15;22.85;;;;;;;1.39;87.67;99712.32;1674964;86;21014;-60
2022/11/29 05:49:58;;;;;;;47.90;22.58;;;;;;;1.42;87.65;99713.59;1675058;86;21751;-49
2022/11/29 05:52:29;;;;;;;52.60;23.47;;;;;;;1.44;87.66;99715.72;1675014;86;21017;-44
2022/11/29 05:55:15;;;;;;;43.85;22.75;;;;;;;1.43;87.84;99720.92;1675084;86;21018;-51
2022/11/29 05:57:56;;;;;;;43.80;22.95;;;;;;;1.50;87.82;99724.71;1675151;86;21049;-54
2022/11/29 06:00:24;;;;;;;43.23;21.50;;;;;;;1.41;87.66;99732.59;1670550;85;20994;-56
2022/11/29 06:03:07;;;;;;;47.17;22.62;;;;;;;1.35;87.58;99728.78;1674173;86;21057;-47
2022/11/29 06:05:53;;;;;;;44.58;21.23;;;;;;;1.45;87.74;99736.01;1672697;86;21681;-44
2022/11/29 06:08:42;;;;;;;38.38;20.32;;;;;;;1.48;87.36;99731.66;1672869;86;21100;-39
2022/11/29 06:11:23;;;;;;;38.78;20.68;;;;;;;1.29;87.52;99734.89;1674886;86;21020;-44
2022/11/29 06:14:21;;;;;;;38.48;19.85;;;;;;;1.27;87.62;99741.80;1674845;84;20986;-44
2022/11/29 06:17:07;;;;;;;44.58;19.80;;;;;;;1.24;87.80;99746.18;1674829;86;21025;-46
2022/11/29 06:19:52;;;;;;;44.18;21.45;;;;;;;1.25;87.76;99744.00;1675154;86;20978;-44
2022/11/29 06:22:50;;;;;;;46.28;23.05;;;;;;;1.32;87.89;99741.31;1674888;86;21006;-41
2022/11/29 06:25:34;;;;;;;45.23;22.62;;;;;;;1.40;87.99;99750.33;1674909;84;21052;-48
2022/11/29 06:28:37;;;;;;;52.48;24.82;;;;;;;1.37;88.07;99755.54;1673791;86;21018;-52
2022/11/29 06:31:17;;;;;;;50.83;24.25;;;;;;;1.38;88.20;99752.05;1674902;85;21038;-42
2022/11/29 06:34:10;;;;;;;49.85;24.67;;;;;;;1.39;88.17;99756.38;1674948;86;21058;-57
2022/11/29 06:36:56;;;;;;;43.90;20.72;;;;;;;1.43;88.25;99759.34;1674902;86;20990;-44
2022/11/29 06:39:22;;;;;;;43.23;21.50;;;;;;;1.40;87.65;99765.00;1674878;86;21487;-50
2022/11/29 06:41:48;;;;;;;42.65;21.20;;;;;;;1.37;87.37;99761.16;1675026;86;21017;-41
2022/11/29 06:44:15;;;;;;;44.10;22.07;;;;;;;1.24;87.36;99763.02;1659317;84;21036;-46
2022/11/29 06:47:10;;;;;;;47.23;22.27;;;;;;;1.32;87.59;99768.97;1657972;86;21743;-55
2022/11/29 06:49:41;;;;;;;42.55;22.87;;;;;;;1.33;87.59;99770.70;1657939;85;21007;-55
2022/11/29 06:52:34;;;;;;;46.88;22.52;;;;;;;1.38;87.64;99769.34;1658088;85;20987;-57
2022/11/29 06:55:14;;;;;;;46.23;20.95;;;;;;;1.39;87.50;99773.66;1657466;86;20991;-43
2022/11/29 06:58:11;;;;;;;44.53;22.10;;;;;;;1.34;87.48;99773.70;1658092;85;21489;-48
2022/11/29 07:01:20;;;;;;;46.05;24.55;;;;;;;1.31;87.52;99773.30;1657998;86;21051;-49
2022/11/29 07:04:10;;;;;;;42.48;22.62;;;;;;;1.34;87.47;99772.41;1657618;86;21062;-47
2022/11/29 07:06:36;;;;;;;42.43;23.52;;;;;;;1.36;87.48;99774.53;1657671;86;21041;-46
2022/11/29 07:09:18;;;;;;;49.27;24.12;;;;;;;1.39;87.76;99770.63;1658053;86;21003;-42
2022/11/29 07:11:46;;;;;;;53.08;24.82;;;;;;;1.43;87.68;99770.16;1658017;86;21047;-55
2022/11/29 07:14:13;;;;;;;48.05;24.10;;;;;;;1.43;87.62;99771.01;1658177;86;21512;-53
2022/11/29 07:17:07;;;;;;;47.38;24.50;;;;;;;1.49;87.70;99775.27;1658238;86;21511;-50
2022/11/29 07:20:08;;;;;;;50.35;25.37;;;;;;;1.54;87.63;99774.34;1658082;85;20992;-44
2022/11/29 07:23:00;;;;;;;42.20;23.70;;;;;;;1.60;87.57;99780.34;1658087;86;21043;-47
2022/11/29 07:25:46;;;;;;;48.55;23.27;;;;;;;1.61;87.23;99785.95;1658071;86;21140;-46
2022/11/29 07:28:55;;;;;;;44.37;21.43;;;;;;;1.61;86.88;99779.03;1655147;86;21043;-39
2022/11/29 07:31:35;;;;;;;39.55;21.40;;;;;;;1.55;86.52;99786.89;1657731;86;21018;-42
2022/11/29 07:34:29;;;;;;;43.83;21.82;;;;;;;1.60;86.41;99790.30;1657932;86;21035;-44
2022/11/29 07:37:12;;;;;;;36.88;20.00;;;;;;;1.58;86.29;99793.31;1658352;86;21015;-47
2022/11/29 07:40:12;;;;;;;38.88;20.85;;;;;;;1.50;86.43;99796.44;1648011;85;21003;-39
2022/11/29 07:43:18;;;;;;;41.75;22.40;;;;;;;1.47;86.41;99796.45;1658102;84;21535;-53
2022/11/29 07:45:44;;;;;;;44.20;22.02;;;;;;;1.49;86.56;99793.00;1658068;86;20995;-52
2022/11/29 07:48:11;;;;;;;46.73;23.47;;;;;;;1.53;86.74;99798.56;1658300;86;21477;-55
2022/11/29 07:50:39;;;;;;;46.08;23.18;;;;;;;1.54;86.56;99798.97;1661446;85;20999;-48
2022/11/29 07:53:05;;;;;;;46.95;22.55;;;;;;;1.56;86.62;99803.29;1689634;84;21019;-41
2022/11/29 07:55:34;;;;;;;52.17;24.90;;;;;;;1.60;86.55;99799.78;1689540;84;21018;-51
2022/11/29 07:57:59;;;;;;;51.83;25.23;;;;;;;1.59;86.67;99800.23;1689336;84;20987;-51
2022/11/29 08:00:25;;;;;;;56.10;26.93;;;;;;;1.65;86.71;99800.15;1689545;85;21030;-50
2022/11/29 08:02:51;;;;;;;46.28;23.02;;;;;;;1.65;86.38;99802.74;1689464;85;20984;-46
2022/11/29 08:05:17;;;;;;;44.20;22.82;;;;;;;1.67;86.44;99801.44;1670140;84;21049;-46
2022/11/29 08:07:43;;;;;;;55.30;24.67;;;;;;;1.61;86.46;99813.17;1663283;86;21053;-46
2022/11/29 08:10:14;;;;;;;44.15;22.67;;;;;;;1.67;86.64;99807.91;1663254;85;21022;-51
2022/11/29 08:12:47;;;;;;;38.35;21.93;;;;;;;1.47;86.51;99810.72;1663134;86;21022;-44
2022/11/29 08:15:14;;;;;;;48.85;23.00;;;;;;;1.46;86.76;99807.27;1662374;86;21050;-52
2022/11/29 08:17:40;;;;;;;44.70;23.30;;;;;;;1.54;86.83;99808.03;1663256;85;20990;-43
2022/11/29 08:20:07;;;;;;;43.23;22.82;;;;;;;1.58;86.70;99806.27;1662999;85;21054;-51
2022/11/29 08:22:33;;;;;;;50.67;23.65;;;;;;;1.63;86.62;99801.91;1663296;85;21017;-37
2022/11/29 08:25:00;;;;;;;46.50;23.85;;;;;;;1.61;86.38;99804.11;1682955;85;20978;-51
2022/11/29 08:27:27;;;;;;;42.80;22.60;;;;;;;1.62;86.65;99805.80;1690108;83;21483;-44
2022/11/29 08:29:53;;;;;;;50.35;21.62;;;;;;;1.67;86.58;99803.61;1690476;84;21026;-42
2022/11/29 08:32:19;;;;;;;42.10;22.37;;;;;;;1.66;86.27;99803.17;1689988;84;21042;-51
2022/11/29 08:34:44;;;;;;;72.00;36.17;;;;;;;1.71;85.61;99802.70;1689697;85;21026;-38
2022/11/29 08:37:10;;;;;;;41.02;21.45;;;;;;;1.70;85.30;99809.19;1690348;84;21038;-39
2022/11/29 08:39:36;;;;;;;45.20;21.85;;;;;;;1.69;85.32;99804.45;1691134;84;20998;-41
2022/11/29 08:42:02;;;;;;;40.83;22.93;;;;;;;1.69;85.20;99807.45;1690916;84;20983;-46
2022/11/29 08:44:28;;;;;;;45.52;25.25;;;;;;;1.73;85.05;99814.35;1725314;83;21038;-50
2022/11/29 08:50:00;;;;;;;96.80;39.05;;;;;;;1.70;85.18;99809.19;1735392;83;21496;-42
2022/11/29 08:54:49;;;;;;;63.25;25.43;;;;;;;1.65;84.89;99822.63;1735717;83;20112;-52
2022/11/29 08:57:14;;;;;;;69.95;29.65;;;;;;;1.67;85.11;99820.88;1735316;83;21049;-45
2022/11/29 08:59:43;;;;;;;63.30;27.35;;;;;;;1.71;85.31;99814.36;1735274;83;21066;-43
2022/11/29 09:02:08;;;;;;;;;;;;;;;1.68;85.19;99813.53;1736980;83;21038;-41
2022/11/29 09:04:33;;;;;;;48.25;21.70;;;;;;;1.70;85.24;99815.23;1735486;83;20104;-41
2022/11/29 09:06:59;;;;;;;40.33;23.10;;;;;;;1.78;85.34;99819.02;1735286;83;21034;-43
2022/11/29 09:09:25;;;;;;;49.55;24.02;;;;;;;1.70;85.15;99812.63;1734413;83;21041;-50
2022/11/29 09:11:51;;;;;;;61.25;29.87;;;;;;;1.83;85.18;99813.35;1734328;83;21022;-47
2022/11/29 09:14:17;;;;;;;52.53;25.52;;;;;;;1.81;85.04;99809.08;1734347;83;21034;-42
2022/11/29 09:16:43;;;;;;;60.00;26.12;;;;;;;1.92;85.38;99818.43;1735502;83;21017;-53
2022/11/29 09:19:09;;;;;;;67.25;30.70;;;;;;;1.98;85.08;99817.95;1734946;83;21077;-53
2022/11/29 09:21:35;;;;;;;46.53;24.12;;;;;;;2.05;84.97;99823.48;1735169;83;20998;-47
2022/11/29 09:24:05;;;;;;;52.90;25.37;;;;;;;2.08;84.75;99822.16;1734146;83;21122;-47
2022/11/29 09:26:36;;;;;;;41.53;21.55;;;;;;;2.06;84.26;99822.62;1735340;83;21020;-37
2022/11/29 09:29:05;;;;;;;41.55;20.37;;;;;;;2.03;83.92;99830.43;1734869;83;21022;-45
2022/11/29 09:31:31;;;;;;;35.28;20.35;;;;;;;2.00;84.03;99823.55;1735596;83;20983;-50
2022/11/29 09:33:58;;;;;;;42.23;22.70;;;;;;;2.03;83.71;99829.12;1735671;83;21046;-44
2022/11/29 09:36:24;;;;;;;45.83;23.02;;;;;;;1.96;83.49;99826.19;1735439;83;20976;-42
2022/11/29 09:38:50;;;;;;;40.20;21.10;;;;;;;1.99;83.93;99827.45;1735851;83;21515;-44
2022/11/29 09:41:43;;;;;;;43.08;21.77;;;;;;;1.98;83.84;99829.17;1735610;83;21531;-46
2022/11/29 09:44:35;;;;;;;37.33;20.95;;;;;;;2.03;83.71;99830.43;1727052;83;21031;-53
2022/11/29 09:47:13;;;;;;;42.85;22.77;;;;;;;1.97;83.54;99823.58;1697587;83;21029;-43
2022/11/29 09:50:03;;;;;;;49.90;24.10;;;;;;;2.05;83.98;99824.78;1689562;85;21057;-46
2022/11/29 09:52:50;;;;;;;54.20;26.20;;;;;;;2.12;84.25;99826.42;1677553;85;21460;-40
2022/11/29 09:55:33;;;;;;;45.28;23.75;;;;;;;2.11;83.78;99820.39;1689801;85;21088;-48
2022/11/29 09:58:02;;;;;;;41.58;22.10;;;;;;;2.04;83.06;99814.85;1642990;85;21037;-47
2022/11/29 10:00:31;;;;;;;38.92;21.45;;;;;;;2.02;83.13;99814.02;1691022;83;21486;-46
2022/11/29 10:03:15;;;;;;;40.83;22.85;;;;;;;2.04;83.17;99820.48;1691025;85;21041;-50
2022/11/29 10:05:46;;;;;;;45.45;23.25;;;;;;;2.06;83.33;99819.58;1690667;85;21057;-47
2022/11/29 10:08:37;;;;;;;45.35;24.65;;;;;;;2.05;82.92;99822.19;1691112;84;21041;-44
2022/11/29 10:11:11;;;;;;;46.50;23.85;;;;;;;2.06;83.07;99823.47;1690112;84;21484;-46
2022/11/29 10:13:44;;;;;;;52.15;26.55;;;;;;;2.15;83.42;99821.20;1688644;85;21037;-39
2022/11/29 10:16:23;;;;;;;47.05;23.83;;;;;;;2.13;83.13;99817.78;1690673;84;21014;-51
2022/11/29 10:19:11;;;;;;;43.65;25.50;;;;;;;2.14;83.60;99821.22;1690835;84;21064;-46
2022/11/29 10:21:42;;;;;;;71.02;31.40;;;;;;;2.19;83.71;99820.73;1706528;83;21450;-52
2022/11/29 10:24:18;;;;;;;81.32;34.30;;;;;;;2.16;83.21;99820.31;1715088;83;21484;-51
2022/11/29 10:26:43;;;;;;;47.10;24.70;;;;;;;2.16;83.24;99816.87;1689934;85;21506;-49
2022/11/29 10:29:15;;;;;;;47.00;25.10;;;;;;;2.19;83.53;99822.88;1700865;83;21086;-43
2022/11/29 10:31:48;;;;;;;42.00;23.77;;;;;;;2.23;83.19;99814.62;1700140;83;21016;-45
2022/11/29 10:34:17;;;;;;;41.73;22.58;;;;;;;2.26;83.13;99819.78;1707245;83;21035;-53
2022/11/29 10:37:01;;;;;;;44.13;22.93;;;;;;;2.27;83.27;99824.95;1695957;83;20975;-49
2022/11/29 10:39:58;;;;;;;44.30;22.87;;;;;;;2.26;82.95;99809.39;1705091;83;21017;-43
2022/11/29 10:45:32;;;;;;;;;;;;;;;2.25;82.73;99815.45;1690510;84;21054;-48
2022/11/29 10:48:16;;;;;;;75.17;37.35;;;;;;;2.18;83.00;99814.66;1681971;84;20139;-51
2022/11/29 10:50:45;;;;;;;54.42;28.75;;;;;;;2.17;83.00;99812.11;1680849;85;21524;-43
2022/11/29 10:53:24;;;;;;;55.78;32.80;;;;;;;2.22;83.02;99818.95;1695865;84;21082;-53
2022/11/29 10:56:04;;;;;;;59.67;34.95;;;;;;;2.28;83.25;99818.86;1696013;84;21003;-50
2022/11/29 10:58:31;;;;;;;53.92;28.20;;;;;;;2.32;83.18;99818.39;1714042;83;21022;-38
2022/11/29 11:01:07;;;;;;;38.05;21.50;;;;;;;2.32;83.10;99818.39;1697370;83;21024;-45
2022/11/29 11:03:51;;;;;;;41.98;21.82;;;;;;;2.33;82.74;99820.53;1691967;84;21024;-54
2022/11/29 11:06:24;;;;;;;40.80;22.85;;;;;;;2.37;82.47;99823.53;1682745;83;21028;-47
2022/11/29 11:09:18;;;;;;;44.50;23.05;;;;;;;2.32;82.02;99822.28;1703447;84;20986;-46
2022/11/29 11:11:55;;;;;;;42.65;22.22;;;;;;;2.34;82.47;99818.37;1684733;85;21043;-55
2022/11/29 11:14:36;;;;;;;44.80;21.07;;;;;;;2.45;82.45;99817.78;1711361;83;21067;-57
2022/11/29 11:17:24;;;;;;;42.58;21.60;;;;;;;2.51;81.89;99821.61;1685090;84;21032;-47
2022/11/29 11:20:00;;;;;;;45.50;21.45;;;;;;;2.53;81.38;99826.75;1700866;84;21000;-48
2022/11/29 11:22:28;;;;;;;43.85;22.20;;;;;;;2.55;81.20;99820.67;1682128;84;21052;-45
2022/11/29 11:25:02;;;;;;;37.00;20.82;;;;;;;2.56;81.33;99822.83;1677892;85;21572;-48
2022/11/29 11:27:34;;;;;;;41.92;22.22;;;;;;;2.61;81.29;99821.88;1681193;85;20996;-49
2022/11/29 11:30:04;;;;;;;43.13;22.98;;;;;;;2.68;81.21;99826.10;1686050;84;21043;-51
2022/11/29 11:32:30;;;;;;;201.82;93.07;;;;;;;2.69;80.83;99825.66;1711195;83;21737;-53
2022/11/29 11:34:59;;;;;;;47.23;25.30;;;;;;;2.70;80.87;99823.48;1681103;85;22209;-47
2022/11/29 11:37:31;;;;;;;72.90;41.13;;;;;;;2.69;80.67;99829.12;1689180;84;20984;-57
2022/11/29 11:40:20;;;;;;;41.40;23.38;;;;;;;2.69;80.73;99821.34;1685669;83;21535;-49
2022/11/29 11:42:46;;;;;;;41.13;22.82;;;;;;;2.72;80.83;99829.97;1685588;84;21004;-51
2022/11/29 11:45:17;;;;;;;40.17;23.15;;;;;;;2.69;80.66;99830.43;1703508;83;21099;-44
2022/11/29 11:48:00;;;;;;;47.13;23.60;;;;;;;2.76;80.95;99821.23;1701415;84;21067;-42
2022/11/29 11:50:37;;;;;;;61.60;28.17;;;;;;;2.79;80.79;99823.80;1697189;84;22245;-44
2022/11/29 11:53:27;;;;;;;45.90;24.55;;;;;;;2.86;80.64;99820.23;1699223;84;20968;-48
2022/11/29 11:56:00;;;;;;;48.83;26.60;;;;;;;2.84;79.74;99824.59;1706124;83;21039;-50
2022/11/29 11:58:37;;;;;;;51.13;27.42;;;;;;;2.98;79.75;99823.06;1693296;83;21508;-51
2022/11/29 12:01:26;;;;;;;43.58;23.42;;;;;;;2.96;78.86;99821.78;1713225;83;21477;-43
2022/11/29 12:04:27;;;;;;;59.27;28.90;;;;;;;3.00;78.87;99822.17;1694287;84;21477;-58
2022/11/29 12:07:05;;;;;;;44.27;23.55;;;;;;;3.03;78.51;99818.20;1708788;83;21003;-58
2022/11/29 12:09:48;;;;;;;;;;;;;;;3.09;78.82;99813.34;1694198;84;21043;-51
2022/11/29 12:12:31;;;;;;;49.00;26.35;;;;;;;3.06;78.88;99810.37;1682522;85;20114;-52
2022/11/29 12:15:21;;;;;;;43.30;23.38;;;;;;;3.12;78.86;99817.66;1713495;83;20988;-42
2022/11/29 12:18:19;;;;;;;38.78;21.68;;;;;;;3.08;78.73;99816.39;1695177;84;21087;-48
2022/11/29 12:21:16;;;;;;;37.38;22.62;;;;;;;3.17;79.07;99815.39;1704655;84;21556;-42
2022/11/29 12:23:51;;;;;;;46.55;25.10;;;;;;;3.17;78.51;99810.64;1583804;90;21032;-57
2022/11/29 12:26:31;;;;;;;41.58;21.75;;;;;;;3.20;78.25;99820.55;1581562;90;21074;-52
2022/11/29 12:29:01;;;;;;;50.52;24.02;;;;;;;3.13;77.74;99814.16;1563574;91;21035;-47
2022/11/29 12:31:44;;;;;;;46.20;23.80;;;;;;;3.22;78.62;99812.70;1553001;90;21227;-54